Time;durP1;ratioP1;P1;durP2;ratioP2;P2;SDS_P1;SDS_P2;PMS_P1;PMS_P2;Temp;Humidity;BMP_temperature;BMP_pressure;BME280_temperature;BME280_humidity;BME280_pressure;Samples;Min_cycle;Max_cycle;Signal;HPM_P1;HPM_P2
2021/01/14 00:02:03;;;;;;;37.83;21.63;;;;;;;;;;5034296;28;20500;-68
2021/01/14 00:04:29;;;;;;;39.03;21.70;;;;;;;;;;5033854;28;20029;-68
2021/01/14 00:06:56;;;;;;;38.27;20.57;;;;;;;;;;5034151;28;20037;-68
2021/01/14 00:09:22;;;;;;;35.37;18.43;;;;;;;;;;5033968;28;20029;-68
2021/01/14 00:11:49;;;;;;;36.57;19.87;;;;;;;;;;5034139;28;20018;-66
2021/01/14 00:14:15;;;;;;;33.63;19.50;;;;;;;;;;5033814;28;20033;-66
2021/01/14 00:16:41;;;;;;;34.73;18.33;;;;;;;;;;5033919;28;20028;-66
2021/01/14 00:19:07;;;;;;;31.73;17.63;;;;;;;;;;5033824;28;20041;-66
2021/01/14 00:21:53;;;;;;;33.70;17.93;;;;;;;;;;5033905;28;20036;-66
2021/01/14 00:24:19;;;;;;;32.57;17.40;;;;;;;;;;5033909;28;20398;-66
2021/01/14 00:26:46;;;;;;;33.03;17.20;;;;;;;;;;5033901;28;20060;-67
2021/01/14 00:29:13;;;;;;;33.03;18.97;;;;;;;;;;5033715;28;20083;-66
2021/01/14 00:31:39;;;;;;;34.83;18.83;;;;;;;;;;5033754;28;20112;-66
2021/01/14 00:34:05;;;;;;;35.60;20.10;;;;;;;;;;5033544;28;20046;-66
2021/01/14 00:36:32;;;;;;;39.20;19.77;;;;;;;;;;5033434;28;20025;-66
2021/01/14 00:39:00;;;;;;;39.87;20.30;;;;;;;;;;5033524;28;20033;-67
2021/01/14 00:41:26;;;;;;;33.97;19.10;;;;;;;;;;5033464;28;20087;-66
2021/01/14 00:43:52;;;;;;;35.33;18.37;;;;;;;;;;5033698;28;20036;-66
2021/01/14 00:46:20;;;;;;;33.67;19.10;;;;;;;;;;5032975;28;20029;-66
2021/01/14 00:48:46;;;;;;;30.57;18.53;;;;;;;;;;5033206;28;20030;-66
2021/01/14 00:51:12;;;;;;;32.43;19.47;;;;;;;;;;5033531;28;20022;-66
2021/01/14 00:53:39;;;;;;;32.50;18.87;;;;;;;;;;5033453;28;20671;-66
2021/01/14 00:56:05;;;;;;;32.83;19.23;;;;;;;;;;5033435;28;20100;-66
2021/01/14 00:58:32;;;;;;;33.77;18.30;;;;;;;;;;5033156;28;20033;-66
2021/01/14 01:00:58;;;;;;;33.47;19.23;;;;;;;;;;5033139;28;20025;-66
2021/01/14 01:03:24;;;;;;;33.80;18.87;;;;;;;;;;5033289;28;20037;-66
2021/01/14 01:05:50;;;;;;;33.50;17.70;;;;;;;;;;5033346;28;20112;-66
2021/01/14 01:08:16;;;;;;;31.30;17.73;;;;;;;;;;5032940;28;20049;-66
2021/01/14 01:10:43;;;;;;;30.77;18.77;;;;;;;;;;5033112;28;20379;-67
2021/01/14 01:13:09;;;;;;;32.90;18.07;;;;;;;;;;5031685;28;20038;-66
2021/01/14 01:15:35;;;;;;;35.47;17.83;;;;;;;;;;5033069;28;20025;-66
2021/01/14 01:18:01;;;;;;;29.07;18.07;;;;;;;;;;5033019;28;20458;-66
2021/01/14 01:20:27;;;;;;;30.63;16.50;;;;;;;;;;5033019;28;20037;-66
2021/01/14 01:22:55;;;;;;;27.83;16.10;;;;;;;;;;5032620;28;20017;-66
2021/01/14 01:25:21;;;;;;;27.77;15.17;;;;;;;;;;5032762;28;20502;-66
2021/01/14 01:27:47;;;;;;;26.87;15.30;;;;;;;;;;5032638;28;20025;-66
2021/01/14 01:30:13;;;;;;;31.67;16.10;;;;;;;;;;5032722;28;20029;-66
2021/01/14 01:32:39;;;;;;;27.47;15.97;;;;;;;;;;5033083;28;20091;-66
2021/01/14 01:35:06;;;;;;;28.47;15.83;;;;;;;;;;5033022;28;20126;-66
2021/01/14 01:37:32;;;;;;;29.00;16.80;;;;;;;;;;5032627;28;20022;-66
2021/01/14 01:39:58;;;;;;;30.03;17.67;;;;;;;;;;5033118;28;20022;-66
2021/01/14 01:42:24;;;;;;;28.50;16.93;;;;;;;;;;5032993;28;20029;-66
2021/01/14 01:44:50;;;;;;;33.53;18.47;;;;;;;;;;5032570;28;20029;-66
2021/01/14 01:47:17;;;;;;;30.20;17.03;;;;;;;;;;5033118;28;20061;-66
2021/01/14 01:49:43;;;;;;;29.03;17.90;;;;;;;;;;5032841;28;20017;-66
2021/01/14 01:52:09;;;;;;;36.47;18.47;;;;;;;;;;5032967;28;20378;-66
2021/01/14 01:54:36;;;;;;;32.27;18.07;;;;;;;;;;5032699;28;20478;-66
2021/01/14 01:57:02;;;;;;;30.90;18.80;;;;;;;;;;5032689;28;20028;-66
2021/01/14 01:59:30;;;;;;;32.17;18.47;;;;;;;;;;5029751;28;20071;-66
2021/01/14 02:01:56;;;;;;;33.93;18.57;;;;;;;;;;5029910;28;20022;-66
2021/01/14 02:04:22;;;;;;;33.77;19.53;;;;;;;;;;5030678;28;20104;-68
2021/01/14 02:06:58;;;;;;;35.57;19.20;;;;;;;;;;5031447;28;20096;-66
2021/01/14 02:09:25;;;;;;;31.17;17.83;;;;;;;;;;5032440;28;20535;-66
2021/01/14 02:11:58;;;;;;;32.17;18.43;;;;;;;;;;5032474;28;20363;-66
2021/01/14 02:14:26;;;;;;;30.55;18.55;;;;;;;;;;5031931;28;20076;-66
2021/01/14 02:16:53;;;;;;;33.27;18.67;;;;;;;;;;5032501;28;20489;-66
2021/01/14 02:19:28;;;;;;;28.40;16.80;;;;;;;;;;5034088;28;20075;-66
2021/01/14 02:21:56;;;;;;;29.03;17.63;;;;;;;;;;5036141;28;20390;-66
2021/01/14 02:24:39;;;;;;;28.60;17.40;;;;;;;;;;5035940;28;20025;-66
2021/01/14 02:27:05;;;;;;;27.00;15.25;;;;;;;;;;5036125;28;20525;-66
2021/01/14 02:29:33;;;;;;;26.40;14.57;;;;;;;;;;5035686;28;20031;-66
2021/01/14 02:31:59;;;;;;;26.33;13.17;;;;;;;;;;5035794;28;20052;-66
2021/01/14 02:34:25;;;;;;;21.53;13.20;;;;;;;;;;5035582;28;20124;-66
2021/01/14 02:36:51;;;;;;;22.20;12.97;;;;;;;;;;5035724;28;20026;-66
2021/01/14 02:39:17;;;;;;;22.90;12.57;;;;;;;;;;5036015;28;20029;-66
2021/01/14 02:41:43;;;;;;;20.53;12.23;;;;;;;;;;5035925;28;20025;-66
2021/01/14 02:44:09;;;;;;;21.73;11.43;;;;;;;;;;5035300;28;20502;-66
2021/01/14 02:46:35;;;;;;;19.27;11.87;;;;;;;;;;5035729;28;20526;-66
2021/01/14 02:49:01;;;;;;;19.90;11.30;;;;;;;;;;5035268;28;20064;-66
2021/01/14 02:51:31;;;;;;;21.27;11.60;;;;;;;;;;5035410;28;20037;-66
2021/01/14 02:53:59;;;;;;;19.93;12.10;;;;;;;;;;5035703;28;20061;-66
2021/01/14 02:56:26;;;;;;;22.03;11.77;;;;;;;;;;5035709;28;20052;-66
2021/01/14 02:58:55;;;;;;;19.00;11.43;;;;;;;;;;5035297;28;20029;-66
2021/01/14 03:01:21;;;;;;;18.00;11.20;;;;;;;;;;5035442;28;20033;-66
2021/01/14 03:03:47;;;;;;;23.23;11.90;;;;;;;;;;5035357;28;20025;-66
2021/01/14 03:06:13;;;;;;;23.20;12.03;;;;;;;;;;5035410;28;20029;-67
2021/01/14 03:08:39;;;;;;;25.40;14.00;;;;;;;;;;5035137;28;20454;-66
2021/01/14 03:11:05;;;;;;;25.97;15.50;;;;;;;;;;5035532;28;20029;-66
2021/01/14 03:13:31;;;;;;;26.13;16.00;;;;;;;;;;5035024;28;20033;-66
2021/01/14 03:15:57;;;;;;;27.13;16.43;;;;;;;;;;5035162;28;20032;-67
2021/01/14 03:18:23;;;;;;;27.37;16.53;;;;;;;;;;5034936;28;20080;-67
2021/01/14 03:20:50;;;;;;;36.97;16.73;;;;;;;;;;5035200;28;20030;-66
2021/01/14 03:23:16;;;;;;;30.03;17.33;;;;;;;;;;5035211;28;20029;-66
2021/01/14 03:25:43;;;;;;;28.73;16.40;;;;;;;;;;5035149;28;20029;-66
2021/01/14 03:28:09;;;;;;;26.83;16.03;;;;;;;;;;5034725;28;20029;-66
2021/01/14 03:30:35;;;;;;;29.90;16.87;;;;;;;;;;5034796;28;20204;-66
2021/01/14 03:33:01;;;;;;;26.83;16.77;;;;;;;;;;5034838;28;20064;-66
2021/01/14 03:35:27;;;;;;;26.57;16.30;;;;;;;;;;5035006;28;20021;-66
2021/01/14 03:37:53;;;;;;;27.67;16.27;;;;;;;;;;5034696;28;20032;-66
2021/01/14 03:40:19;;;;;;;28.10;16.23;;;;;;;;;;5034743;28;20032;-66
2021/01/14 03:42:45;;;;;;;29.37;16.07;;;;;;;;;;5034871;28;20359;-66
2021/01/14 03:45:11;;;;;;;24.43;15.70;;;;;;;;;;5034852;28;20390;-66
2021/01/14 03:47:38;;;;;;;31.03;15.33;;;;;;;;;;5034453;28;20037;-67
2021/01/14 03:50:04;;;;;;;25.10;15.23;;;;;;;;;;5034688;28;20482;-66
2021/01/14 03:52:30;;;;;;;25.63;15.93;;;;;;;;;;5034451;28;20398;-66
2021/01/14 03:54:56;;;;;;;26.17;15.00;;;;;;;;;;5034632;28;20034;-66
2021/01/14 03:57:22;;;;;;;28.67;15.00;;;;;;;;;;5033981;28;20482;-66
2021/01/14 03:59:48;;;;;;;26.77;14.97;;;;;;;;;;5034136;28;20108;-66
2021/01/14 04:02:14;;;;;;;24.27;13.83;;;;;;;;;;5034140;28;20025;-66
2021/01/14 04:04:41;;;;;;;24.60;14.07;;;;;;;;;;5034344;28;20033;-66
2021/01/14 04:07:08;;;;;;;25.00;14.17;;;;;;;;;;5034052;28;20026;-67
2021/01/14 04:09:34;;;;;;;27.50;14.77;;;;;;;;;;5034330;28;20022;-66
2021/01/14 04:12:00;;;;;;;27.83;15.20;;;;;;;;;;5034286;28;20037;-66
2021/01/14 04:14:26;;;;;;;26.37;14.27;;;;;;;;;;5033934;28;20124;-66
2021/01/14 04:16:53;;;;;;;24.57;14.10;;;;;;;;;;5033875;28;20440;-66
2021/01/14 04:19:19;;;;;;;26.63;14.10;;;;;;;;;;5033952;28;20053;-66
2021/01/14 04:21:45;;;;;;;25.43;14.20;;;;;;;;;;5033995;28;20047;-66
2021/01/14 04:24:12;;;;;;;24.13;13.53;;;;;;;;;;5034281;28;20083;-66
2021/01/14 04:26:38;;;;;;;23.00;14.33;;;;;;;;;;5033783;28;20026;-66
2021/01/14 04:29:05;;;;;;;23.60;13.93;;;;;;;;;;5033783;28;20125;-66
2021/01/14 04:31:31;;;;;;;21.20;13.33;;;;;;;;;;5033747;28;20025;-66
2021/01/14 04:33:57;;;;;;;24.97;14.57;;;;;;;;;;5033483;28;20033;-66
2021/01/14 04:36:23;;;;;;;24.73;14.20;;;;;;;;;;5033752;28;20022;-66
2021/01/14 04:38:49;;;;;;;24.50;13.40;;;;;;;;;;5033790;28;20028;-66
2021/01/14 04:41:20;;;;;;;23.43;13.33;;;;;;;;;;5033177;28;20029;-66
2021/01/14 04:43:46;;;;;;;25.57;14.73;;;;;;;;;;5033413;28;20060;-67
2021/01/14 04:46:13;;;;;;;32.63;14.13;;;;;;;;;;5033470;28;20021;-66
2021/01/14 04:48:40;;;;;;;26.43;14.23;;;;;;;;;;5033374;28;20021;-66
2021/01/14 04:51:07;;;;;;;24.80;14.30;;;;;;;;;;5033627;28;20026;-66
2021/01/14 04:53:37;;;;;;;23.87;13.63;;;;;;;;;;5033538;28;20038;-66
2021/01/14 04:56:04;;;;;;;25.43;14.63;;;;;;;;;;5033703;28;20029;-66
2021/01/14 04:58:32;;;;;;;23.23;14.20;;;;;;;;;;5033285;28;20025;-66
2021/01/14 05:00:59;;;;;;;21.53;12.57;;;;;;;;;;5033071;28;20030;-66
2021/01/14 05:03:28;;;;;;;22.83;13.87;;;;;;;;;;5033174;28;20032;-66
2021/01/14 05:05:55;;;;;;;25.77;13.67;;;;;;;;;;5033184;28;20096;-66
2021/01/14 05:08:28;;;;;;;22.53;13.57;;;;;;;;;;5033233;28;20459;-67
2021/01/14 05:10:55;;;;;;;30.93;14.63;;;;;;;;;;5032291;28;20030;-66
2021/01/14 05:13:21;;;;;;;21.90;13.90;;;;;;;;;;5032652;28;20033;-67
2021/01/14 05:15:47;;;;;;;23.23;14.20;;;;;;;;;;5032966;28;20390;-67
2021/01/14 05:18:14;;;;;;;23.33;13.50;;;;;;;;;;5033102;28;20049;-67
2021/01/14 05:20:40;;;;;;;23.43;13.57;;;;;;;;;;5033274;28;20033;-66
2021/01/14 05:23:07;;;;;;;23.17;13.33;;;;;;;;;;5032866;28;20028;-67
2021/01/14 05:25:33;;;;;;;26.07;13.17;;;;;;;;;;5032293;28;20484;-66
2021/01/14 05:28:10;;;;;;;21.80;12.87;;;;;;;;;;5032943;28;20026;-66
2021/01/14 05:30:36;;;;;;;22.10;12.60;;;;;;;;;;5033169;28;20497;-66
2021/01/14 05:33:03;;;;;;;23.17;13.43;;;;;;;;;;5032605;28;20068;-66
2021/01/14 05:35:29;;;;;;;23.70;12.27;;;;;;;;;;5032909;28;20108;-66
2021/01/14 05:38:00;;;;;;;23.23;12.80;;;;;;;;;;5032674;28;20029;-66
2021/01/14 05:40:28;;;;;;;21.20;12.13;;;;;;;;;;5032946;28;20084;-66
2021/01/14 05:43:05;;;;;;;22.60;12.87;;;;;;;;;;5032593;28;20208;-66
2021/01/14 05:45:31;;;;;;;25.77;13.00;;;;;;;;;;5032902;28;20032;-68
2021/01/14 05:48:10;;;;;;;21.53;11.07;;;;;;;;;;5032310;28;20030;-68
2021/01/14 05:50:42;;;;;;;26.53;13.00;;;;;;;;;;5032617;28;20086;-68
2021/01/14 05:53:14;;;;;;;22.97;13.67;;;;;;;;;;5032943;28;20141;-68
2021/01/14 05:55:42;;;;;;;25.02;14.50;;;;;;;;;;5036803;28;20439;-68
2021/01/14 05:58:09;;;;;;;24.27;13.77;;;;;;;;;;5036621;28;20052;-68
2021/01/14 06:00:35;;;;;;;20.90;13.60;;;;;;;;;;5036606;28;20033;-69
2021/01/14 06:03:20;;;;;;;20.67;13.57;;;;;;;;;;5036576;28;20028;-68
2021/01/14 06:05:46;;;;;;;23.20;12.70;;;;;;;;;;5036847;28;20036;-68
2021/01/14 06:08:19;;;;;;;25.37;13.63;;;;;;;;;;5036295;28;20029;-69
2021/01/14 06:10:45;;;;;;;20.60;12.82;;;;;;;;;;5036880;28;20036;-68
2021/01/14 06:13:11;;;;;;;25.87;13.33;;;;;;;;;;5036564;28;20483;-68
2021/01/14 06:15:37;;;;;;;22.60;14.13;;;;;;;;;;5036310;28;20486;-68
2021/01/14 06:18:08;;;;;;;22.10;12.60;;;;;;;;;;5036056;28;20029;-69
2021/01/14 06:20:36;;;;;;;29.70;14.10;;;;;;;;;;5036377;28;20360;-68
2021/01/14 06:23:02;;;;;;;24.30;13.77;;;;;;;;;;5036331;28;20105;-68
2021/01/14 06:25:28;;;;;;;21.73;12.87;;;;;;;;;;5036260;28;20026;-69
2021/01/14 06:27:59;;;;;;;25.30;13.30;;;;;;;;;;5035834;28;20017;-66
2021/01/14 06:30:25;;;;;;;22.17;12.57;;;;;;;;;;5036000;28;20108;-67
2021/01/14 06:33:11;;;;;;;23.30;12.73;;;;;;;;;;5035907;28;20052;-66
2021/01/14 06:35:37;;;;;;;23.87;13.13;;;;;;;;;;5035915;28;20061;-68
2021/01/14 06:38:04;;;;;;;19.70;12.87;;;;;;;;;;5035862;28;20044;-69
2021/01/14 06:40:30;;;;;;;24.77;14.03;;;;;;;;;;5035823;28;20471;-68
2021/01/14 06:42:58;;;;;;;25.87;14.00;;;;;;;;;;5035871;28;20060;-68
2021/01/14 06:45:27;;;;;;;29.17;15.87;;;;;;;;;;5035698;28;20017;-66
2021/01/14 06:48:00;;;;;;;27.80;16.10;;;;;;;;;;5035585;28;20022;-66
2021/01/14 06:50:26;;;;;;;25.13;15.18;;;;;;;;;;5037473;28;20109;-69
2021/01/14 06:53:01;;;;;;;28.83;15.63;;;;;;;;;;5035735;28;20041;-68
2021/01/14 06:55:33;;;;;;;28.10;14.77;;;;;;;;;;5035657;28;20033;-68
2021/01/14 06:58:25;;;;;;;27.10;15.20;;;;;;;;;;5035373;28;20037;-66
2021/01/14 07:00:51;;;;;;;29.10;15.47;;;;;;;;;;5034596;28;20117;-68
2021/01/14 07:03:21;;;;;;;28.30;16.13;;;;;;;;;;5035579;28;20029;-68
2021/01/14 07:05:53;;;;;;;27.03;15.10;;;;;;;;;;5034921;28;20482;-68
2021/01/14 07:08:38;;;;;;;25.27;14.65;;;;;;;;;;5035515;28;20475;-68
2021/01/14 07:11:17;;;;;;;22.73;13.20;;;;;;;;;;5035287;28;20032;-67
2021/01/14 07:13:49;;;;;;;25.73;12.60;;;;;;;;;;5035168;28;20470;-69
2021/01/14 07:16:19;;;;;;;21.73;11.90;;;;;;;;;;5035257;28;20100;-66
2021/01/14 07:18:45;;;;;;;22.90;13.33;;;;;;;;;;5035069;28;20506;-68
2021/01/14 07:21:30;;;;;;;25.93;11.90;;;;;;;;;;5034761;28;20025;-69
2021/01/14 07:23:57;;;;;;;27.03;12.80;;;;;;;;;;5034877;28;20032;-66
2021/01/14 07:26:23;;;;;;;23.40;12.60;;;;;;;;;;5034841;28;20030;-66
2021/01/14 07:28:50;;;;;;;26.43;15.17;;;;;;;;;;5034997;28;20056;-66
2021/01/14 07:31:26;;;;;;;29.57;14.43;;;;;;;;;;5034772;28;20075;-67
2021/01/14 07:33:53;;;;;;;28.70;13.77;;;;;;;;;;5034639;28;20044;-68
2021/01/14 07:36:22;;;;;;;30.17;15.30;;;;;;;;;;5034839;28;20017;-67
2021/01/14 07:38:49;;;;;;;27.13;15.07;;;;;;;;;;5034548;28;20083;-67
2021/01/14 07:41:15;;;;;;;24.37;14.17;;;;;;;;;;5034848;28;20021;-65
2021/01/14 07:43:45;;;;;;;25.47;14.87;;;;;;;;;;5034798;28;20026;-64
2021/01/14 07:46:14;;;;;;;31.90;15.77;;;;;;;;;;5033754;28;20025;-67
2021/01/14 07:48:40;;;;;;;33.73;15.30;;;;;;;;;;5033015;28;20021;-66
2021/01/14 07:51:06;;;;;;;32.20;15.57;;;;;;;;;;5034363;28;20096;-66
2021/01/14 07:53:32;;;;;;;41.67;15.60;;;;;;;;;;5034219;28;20569;-66
2021/01/14 07:56:18;;;;;;;29.33;16.20;;;;;;;;;;5032907;28;20576;-67
2021/01/14 07:58:49;;;;;;;28.87;16.53;;;;;;;;;;5033796;28;20029;-66
2021/01/14 08:01:15;;;;;;;34.20;17.53;;;;;;;;;;5033152;28;20030;-67
2021/01/14 08:03:42;;;;;;;36.20;18.73;;;;;;;;;;5033350;28;20032;-68
2021/01/14 08:06:17;;;;;;;32.87;18.63;;;;;;;;;;5033988;28;20100;-67
2021/01/14 08:08:54;;;;;;;34.40;18.10;;;;;;;;;;5034461;28;20033;-66
2021/01/14 08:11:23;;;;;;;30.90;17.77;;;;;;;;;;5032508;28;20076;-66
2021/01/14 08:14:08;;;;;;;29.40;18.23;;;;;;;;;;5032852;28;20083;-67
2021/01/14 08:16:34;;;;;;;30.80;19.27;;;;;;;;;;5032299;28;20034;-66
2021/01/14 08:19:12;;;;;;;27.20;16.47;;;;;;;;;;5033049;28;20065;-66
2021/01/14 08:24:51;;;;;;;25.50;15.13;;;;;;;;;;4691764;28;20931;-67
2021/01/14 08:27:23;;;;;;;37.37;16.13;;;;;;;;;;4925559;28;20028;-68
2021/01/14 08:29:56;;;;;;;25.10;14.53;;;;;;;;;;5034054;28;20474;-71
2021/01/14 08:32:45;;;;;;;29.23;14.38;;;;;;;;;;5051681;28;20462;-66
2021/01/14 08:35:17;;;;;;;32.50;15.67;;;;;;;;;;5042314;28;20045;-69
2021/01/14 08:37:54;;;;;;;31.00;14.30;;;;;;;;;;5052886;28;20051;-69
2021/01/14 08:40:23;;;;;;;26.77;15.87;;;;;;;;;;5052335;28;20060;-68
2021/01/14 08:42:59;;;;;;;29.07;14.00;;;;;;;;;;5052818;28;20075;-71
2021/01/14 08:45:28;;;;;;;30.63;14.07;;;;;;;;;;5052506;28;20020;-69
2021/01/14 08:47:58;;;;;;;23.00;14.70;;;;;;;;;;5052554;28;20017;-69
2021/01/14 08:50:37;;;;;;;31.53;15.73;;;;;;;;;;5052455;28;20547;-71
2021/01/14 08:53:04;;;;;;;26.47;14.87;;;;;;;;;;5053050;28;20405;-71
2021/01/14 08:55:30;;;;;;;29.23;16.00;;;;;;;;;;5034618;28;20029;-70
2021/01/14 08:57:56;;;;;;;29.40;15.33;;;;;;;;;;5032635;28;20445;-66
2021/01/14 09:00:23;;;;;;;24.43;14.83;;;;;;;;;;5033436;28;20033;-66
2021/01/14 09:02:49;;;;;;;26.03;15.17;;;;;;;;;;5033205;28;20100;-69
2021/01/14 09:05:15;;;;;;;20.30;10.93;;;;;;;;;;5032980;28;20025;-66
2021/01/14 09:07:41;;;;;;;19.10;9.50;;;;;;;;;;5032787;28;20467;-68
2021/01/14 09:10:08;;;;;;;17.37;9.67;;;;;;;;;;5029427;28;20025;-66
2021/01/14 09:12:38;;;;;;;18.77;10.10;;;;;;;;;;5031693;28;20025;-66
2021/01/14 09:15:04;;;;;;;22.43;9.73;;;;;;;;;;5032864;28;20059;-66
2021/01/14 09:17:34;;;;;;;16.90;10.13;;;;;;;;;;5032718;28;20435;-66
2021/01/14 09:20:00;;;;;;;22.97;9.80;;;;;;;;;;5032718;28;20045;-66
2021/01/14 09:22:26;;;;;;;17.20;9.50;;;;;;;;;;5032990;28;20024;-66
2021/01/14 09:24:53;;;;;;;17.97;10.37;;;;;;;;;;5033039;28;20025;-66
2021/01/14 09:27:19;;;;;;;18.77;9.90;;;;;;;;;;5033143;28;20036;-66
2021/01/14 09:29:45;;;;;;;15.83;10.27;;;;;;;;;;5037322;28;20104;-66
2021/01/14 09:32:12;;;;;;;16.60;10.40;;;;;;;;;;5037056;28;20064;-66
2021/01/14 09:34:38;;;;;;;21.53;11.43;;;;;;;;;;5036997;28;20157;-66
2021/01/14 09:37:04;;;;;;;22.57;12.63;;;;;;;;;;5037143;28;20601;-66
2021/01/14 09:39:30;;;;;;;18.73;12.00;;;;;;;;;;5037264;28;20034;-66
2021/01/14 09:41:56;;;;;;;21.77;12.87;;;;;;;;;;5037203;28;20049;-66
2021/01/14 09:44:23;;;;;;;21.60;12.33;;;;;;;;;;5036813;28;20496;-66
2021/01/14 09:46:49;;;;;;;19.73;13.03;;;;;;;;;;5037132;28;20092;-66
2021/01/14 09:49:18;;;;;;;21.73;13.70;;;;;;;;;;5037161;28;20065;-66
2021/01/14 09:51:46;;;;;;;19.63;12.57;;;;;;;;;;5036847;28;20037;-66
2021/01/14 09:54:12;;;;;;;25.97;14.23;;;;;;;;;;5037041;28;20029;-66
2021/01/14 09:56:44;;;;;;;24.30;13.70;;;;;;;;;;5036917;28;20075;-66
2021/01/14 09:59:25;;;;;;;25.53;13.93;;;;;;;;;;5036559;28;20021;-66
2021/01/14 10:01:53;;;;;;;19.43;11.70;;;;;;;;;;5036773;28;20387;-66
2021/01/14 10:04:22;;;;;;;18.83;12.00;;;;;;;;;;5036801;28;20036;-66
2021/01/14 10:06:52;;;;;;;19.60;11.80;;;;;;;;;;5036586;28;20075;-66
2021/01/14 10:09:19;;;;;;;18.47;11.80;;;;;;;;;;5036549;28;20029;-66
2021/01/14 10:11:45;;;;;;;22.03;13.27;;;;;;;;;;5036380;28;20025;-66
2021/01/14 10:14:17;;;;;;;21.20;13.10;;;;;;;;;;5036529;28;20048;-66
2021/01/14 10:16:44;;;;;;;19.10;12.38;;;;;;;;;;5036577;28;20424;-66
2021/01/14 10:19:11;;;;;;;19.20;11.47;;;;;;;;;;5036278;28;20099;-66
2021/01/14 10:21:38;;;;;;;18.60;12.13;;;;;;;;;;5036320;28;20037;-66
2021/01/14 10:24:04;;;;;;;16.97;11.80;;;;;;;;;;5036187;28;20026;-66
2021/01/14 10:26:30;;;;;;;17.53;11.80;;;;;;;;;;5036432;28;20425;-66
2021/01/14 10:28:56;;;;;;;24.97;14.70;;;;;;;;;;5036311;28;20032;-66
2021/01/14 10:31:35;;;;;;;20.10;11.43;;;;;;;;;;5036245;28;20112;-66
2021/01/14 10:34:01;;;;;;;21.40;11.90;;;;;;;;;;5036074;28;20402;-66
2021/01/14 10:36:46;;;;;;;19.57;11.90;;;;;;;;;;5036231;28;20120;-66
2021/01/14 10:39:12;;;;;;;15.87;11.37;;;;;;;;;;5035360;28;20052;-66
2021/01/14 10:41:38;;;;;;;17.50;11.47;;;;;;;;;;5035882;28;20021;-66
2021/01/14 10:44:07;;;;;;;18.87;12.10;;;;;;;;;;5035864;28;20130;-66
2021/01/14 10:46:33;;;;;;;16.87;11.70;;;;;;;;;;5035832;28;20026;-67
2021/01/14 10:49:12;;;;;;;18.50;11.93;;;;;;;;;;5036059;28;20025;-66
2021/01/14 10:51:40;;;;;;;19.77;11.83;;;;;;;;;;5035865;28;20025;-66
2021/01/14 10:54:06;;;;;;;21.47;12.13;;;;;;;;;;5035958;28;20049;-66
2021/01/14 10:56:32;;;;;;;16.90;11.70;;;;;;;;;;5035578;28;20053;-66
2021/01/14 10:59:01;;;;;;;19.40;11.63;;;;;;;;;;5036071;28;20037;-66
2021/01/14 11:01:27;;;;;;;23.40;13.03;;;;;;;;;;5035676;28;20027;-66
2021/01/14 11:03:55;;;;;;;17.97;11.57;;;;;;;;;;5035550;28;20033;-66
2021/01/14 11:06:28;;;;;;;18.67;12.17;;;;;;;;;;5035274;28;20072;-66
2021/01/14 11:08:54;;;;;;;;;;;;;;;;;;5036035;28;20132;-66
2021/01/14 11:11:20;;;;;;;19.10;11.83;;;;;;;;;;5035528;28;20393;-66
2021/01/14 11:13:47;;;;;;;20.83;12.33;;;;;;;;;;5035144;28;20505;-66
2021/01/14 11:16:13;;;;;;;20.17;11.57;;;;;;;;;;5035192;28;20072;-66
2021/01/14 11:18:43;;;;;;;19.63;12.67;;;;;;;;;;5034349;28;20136;-66
2021/01/14 11:21:10;;;;;;;17.57;11.70;;;;;;;;;;5034704;28;20028;-67
2021/01/14 11:23:36;;;;;;;27.03;11.30;;;;;;;;;;5034536;28;20747;-67
2021/01/14 11:26:03;;;;;;;18.17;11.70;;;;;;;;;;5034859;28;20044;-66
2021/01/14 11:28:32;;;;;;;17.73;10.93;;;;;;;;;;5034804;28;20032;-67
2021/01/14 11:30:59;;;;;;;17.23;11.10;;;;;;;;;;5033533;28;20029;-67
2021/01/14 11:33:25;;;;;;;17.27;10.67;;;;;;;;;;5034866;28;20029;-67
2021/01/14 11:35:51;;;;;;;19.13;11.60;;;;;;;;;;5034752;28;20056;-66
2021/01/14 11:38:18;;;;;;;23.87;12.07;;;;;;;;;;5034752;28;20144;-66
2021/01/14 11:40:45;;;;;;;18.40;11.37;;;;;;;;;;5034767;28;20466;-66
2021/01/14 11:43:11;;;;;;;19.97;10.60;;;;;;;;;;5034848;28;20040;-67
2021/01/14 11:45:38;;;;;;;15.57;9.90;;;;;;;;;;5034256;28;20035;-68
2021/01/14 11:48:05;;;;;;;17.57;9.93;;;;;;;;;;5034983;28;20100;-68
2021/01/14 11:50:31;;;;;;;15.50;10.13;;;;;;;;;;5034615;28;20064;-68
2021/01/14 11:52:57;;;;;;;20.33;10.43;;;;;;;;;;5034466;28;20040;-68
2021/01/14 11:55:23;;;;;;;17.30;9.90;;;;;;;;;;5033660;28;20021;-68
2021/01/14 11:57:49;;;;;;;16.20;9.73;;;;;;;;;;5033756;28;20009;-71
2021/01/14 12:00:16;;;;;;;19.37;8.87;;;;;;;;;;5033322;28;20057;-70
2021/01/14 12:02:42;;;;;;;17.03;9.43;;;;;;;;;;5032724;28;20386;-68
2021/01/14 12:05:08;;;;;;;20.27;9.33;;;;;;;;;;5032350;28;20351;-68
2021/01/14 12:07:34;;;;;;;12.97;8.43;;;;;;;;;;5031229;28;20033;-68
2021/01/14 12:10:00;;;;;;;11.37;8.53;;;;;;;;;;5032387;28;20037;-69
2021/01/14 12:12:26;;;;;;;11.83;7.70;;;;;;;;;;5030842;28;20025;-68
2021/01/14 12:14:53;;;;;;;10.00;4.90;;;;;;;;;;5032581;28;20065;-68
2021/01/14 12:17:19;;;;;;;5.90;3.70;;;;;;;;;;5034052;28;20013;-68
2021/01/14 12:19:45;;;;;;;7.03;4.20;;;;;;;;;;5034015;28;20061;-68
2021/01/14 12:22:11;;;;;;;5.67;3.03;;;;;;;;;;5032764;28;20025;-68
2021/01/14 12:24:37;;;;;;;5.30;3.20;;;;;;;;;;5033977;28;20090;-67
2021/01/14 12:27:03;;;;;;;5.67;3.57;;;3.50;58.80;;;;;;5033431;28;20018;-71
2021/01/14 12:29:29;;;;;;;7.10;3.77;;;10.20;54.00;;;;;;5034081;28;20033;-71
2021/01/14 12:31:55;;;;;;;4.63;3.23;;;10.10;53.50;;;;;;5033747;28;20021;-71
2021/01/14 12:34:20;;;;;;;7.23;3.00;;;10.10;52.90;;;;;;5033838;28;20037;-71
2021/01/14 12:36:46;;;;;;;6.13;2.47;;;10.20;53.00;;;;;;5033377;28;20028;-71
2021/01/14 12:39:12;;;;;;;6.17;1.90;;;10.20;51.60;;;;;;5033588;28;20029;-71
2021/01/14 12:41:39;;;;;;;2.10;1.30;;;10.20;50.00;;;;;;5033738;28;20488;-71
2021/01/14 12:44:05;;;;;;;1.80;1.20;;;10.20;50.80;;;;;;5033420;28;20026;-71
2021/01/14 12:46:41;;;;;;;4.13;1.90;;;10.20;50.10;;;;;;5033684;28;20501;-71
2021/01/14 12:49:07;;;;;;;2.27;1.20;;;10.10;49.40;;;;;;5033345;28;20029;-69
2021/01/14 12:51:34;;;;;;;2.10;1.37;;;10.10;50.00;;;;;;5033179;28;20060;-68
2021/01/14 12:54:00;;;;;;;2.33;1.33;;;10.10;49.20;;;;;;5033295;28;20030;-69
2021/01/14 12:56:26;;;;;;;2.37;1.03;;;10.10;47.30;;;;;;5033463;28;20086;-68
2021/01/14 12:58:53;;;;;;;1.70;1.00;;;10.10;47.30;;;;;;5033254;28;20022;-71
2021/01/14 13:01:35;;;;;;;2.03;1.20;;;10.20;45.30;;;;;;5031551;28;20033;-71
2021/01/14 13:04:02;;;;;;;2.17;1.07;;;10.20;44.00;;;;;;5029933;28;20128;-70
2021/01/14 13:06:33;;;;;;;2.20;1.00;;;10.20;43.70;;;;;;5030670;28;20048;-72
2021/01/14 13:09:01;;;;;;;3.60;1.00;;;10.30;44.30;;;;;;5032999;28;20026;-72
2021/01/14 13:11:29;;;;;;;4.67;2.47;;;10.30;43.70;;;;;;5033119;28;20101;-71
2021/01/14 13:13:57;;;;;;;4.40;1.57;;;10.40;42.80;;;;;;5033001;28;20029;-71
2021/01/14 13:16:33;;;;;;;2.73;1.00;;;10.40;40.80;;;;;;5032859;28;20080;-70
2021/01/14 13:18:59;;;;;;;1.40;1.00;;;10.40;41.70;;;;;;5032875;28;20073;-70
2021/01/14 13:21:31;;;;;;;1.30;0.80;;;10.40;39.40;;;;;;5032890;28;20075;-71
2021/01/14 13:23:57;;;;;;;1.30;0.67;;;10.40;40.70;;;;;;5032526;28;20048;-71
2021/01/14 13:26:22;;;;;;;1.70;0.80;;;10.50;41.00;;;;;;5032689;28;20025;-71
2021/01/14 13:28:51;;;;;;;1.03;0.80;;;10.50;40.50;;;;;;5031333;28;20185;-71
2021/01/14 13:31:16;;;;;;;1.13;0.70;;;10.50;39.40;;;;;;5030540;28;20033;-70
2021/01/14 13:33:42;;;;;;;1.10;0.60;;;10.60;40.30;;;;;;5030170;28;20041;-69
2021/01/14 13:36:08;;;;;;;0.97;0.43;;;10.60;39.40;;;;;;5032914;28;20079;-70
2021/01/14 13:38:34;;;;;;;2.70;0.57;;;10.60;37.60;;;;;;5032172;28;20036;-70
2021/01/14 13:40:59;;;;;;;0.80;0.50;;;10.60;36.30;;;;;;5032416;28;20104;-70
2021/01/14 13:43:25;;;;;;;1.20;0.60;;;10.60;35.70;;;;;;5032781;28;20083;-70
2021/01/14 13:45:58;;;;;;;0.70;0.50;;;10.60;35.70;;;;;;5032803;28;20105;-69
2021/01/14 13:48:24;;;;;;;0.83;0.30;;;10.60;32.90;;;;;;5032535;28;20033;-70
2021/01/14 13:50:50;;;;;;;0.30;0.20;;;10.50;32.60;;;;;;5032803;28;20111;-70
2021/01/14 13:53:15;;;;;;;6.70;0.40;;;10.50;35.00;;;;;;5032488;28;20034;-70
2021/01/14 13:55:44;;;;;;;0.67;0.50;;;10.60;34.10;;;;;;5032734;28;20036;-68
2021/01/14 13:58:14;;;;;;;36.93;13.53;;;10.50;35.00;;;;;;5032138;28;20025;-69
2021/01/14 14:00:46;;;;;;;11.97;5.80;;;10.50;34.70;;;;;;5032559;28;20037;-69
2021/01/14 14:03:13;;;;;;;1.73;0.90;;;10.50;34.80;;;;;;5032219;28;20030;-69
2021/01/14 14:05:40;;;;;;;2.87;0.80;;;10.40;35.20;;;;;;5031690;28;20065;-69
2021/01/14 14:08:06;;;;;;;1.13;0.53;;;10.40;36.00;;;;;;5032564;28;20030;-69
2021/01/14 14:10:32;;;;;;;1.40;0.80;;;10.40;36.00;;;;;;5032783;28;20057;-69
2021/01/14 14:12:59;;;;;;;4.03;1.50;;;10.40;34.70;;;;;;5032698;28;20025;-69
2021/01/14 14:15:25;;;;;;;2.70;0.50;;;10.40;34.80;;;;;;5034518;28;20025;-69